Time;durP1;ratioP1;P1;durP2;ratioP2;P2;SDS_P1;SDS_P2;PMS_P1;PMS_P2;Temp;Humidity;BMP_temperature;BMP_pressure;BME280_temperature;BME280_humidity;BME280_pressure;Samples;Min_cycle;Max_cycle;Signal;HPM_P1;HPM_P2
2023/04/12 00:02:06;;;;;;;6.72;2.75;;;;;;;7.52;100.00;100538.38;4999785;28;20054;-72
2023/04/12 00:04:33;;;;;;;8.60;2.58;;;;;;;7.54;100.00;100531.41;4997826;28;20401;-72
2023/04/12 00:06:59;;;;;;;8.02;2.67;;;;;;;7.49;100.00;100528.91;5007586;28;20045;-72
2023/04/12 00:09:29;;;;;;;9.45;2.60;;;;;;;7.43;100.00;100517.75;4993978;28;20054;-72
2023/04/12 00:11:57;;;;;;;4.47;2.53;;;;;;;7.43;100.00;100507.38;4987556;28;20030;-72
2023/04/12 00:14:24;;;;;;;7.88;2.53;;;;;;;7.41;100.00;100503.94;4988978;28;20083;-72
2023/04/12 00:16:49;;;;;;;9.00;2.17;;;;;;;7.39;100.00;100492.72;4990098;28;20030;-72
2023/04/12 00:19:15;;;;;;;6.75;2.05;;;;;;;7.35;100.00;100498.84;4989500;28;20030;-72
2023/04/12 00:21:42;;;;;;;6.60;2.08;;;;;;;7.33;100.00;100498.03;4990302;28;20034;-72
2023/04/12 00:24:07;;;;;;;8.15;2.15;;;;;;;7.30;100.00;100487.72;4993451;28;20026;-72
2023/04/12 00:26:32;;;;;;;8.52;2.20;;;;;;;7.28;100.00;100449.69;4990068;28;20026;-72
2023/04/12 00:28:58;;;;;;;4.68;2.20;;;;;;;7.24;100.00;100458.41;4997969;28;20031;-72
2023/04/12 00:31:24;;;;;;;5.30;2.20;;;;;;;7.27;100.00;100452.31;5002398;28;20030;-73
2023/04/12 00:33:49;;;;;;;6.32;2.15;;;;;;;7.30;100.00;100443.63;5005912;28;20026;-71
2023/04/12 00:36:15;;;;;;;6.20;2.20;;;;;;;7.28;100.00;100438.47;4990725;28;20450;-71
2023/04/12 00:38:41;;;;;;;9.45;2.47;;;;;;;7.25;100.00;100425.53;4990025;28;20537;-70
2023/04/12 00:41:06;;;;;;;8.63;2.22;;;;;;;7.28;100.00;100415.13;4989958;28;20018;-73
2023/04/12 00:43:32;;;;;;;6.65;1.92;;;;;;;7.20;100.00;100407.47;4989313;28;20054;-73
2023/04/12 00:45:58;;;;;;;6.63;2.13;;;;;;;7.24;100.00;100403.09;4988420;28;20121;-73
2023/04/12 00:48:25;;;;;;;5.10;2.20;;;;;;;7.24;100.00;100406.53;4989585;28;20030;-73
2023/04/12 00:50:54;;;;;;;10.55;2.75;;;;;;;7.20;100.00;100404.03;4989734;28;20026;-74
2023/04/12 00:53:21;;;;;;;6.05;2.33;;;;;;;7.20;100.00;100396.25;5015265;28;20508;-72
2023/04/12 00:55:48;;;;;;;9.30;2.28;;;;;;;7.19;100.00;100386.75;4989283;28;20088;-71
2023/04/12 00:58:15;;;;;;;8.85;2.35;;;;;;;7.12;100.00;100360.06;4989581;28;20030;-72
2023/04/12 01:00:41;;;;;;;6.82;2.35;;;;;;;7.17;100.00;100360.88;4988835;28;20033;-72
2023/04/12 01:03:12;;;;;;;9.70;2.25;;;;;;;7.12;100.00;100339.34;4986662;28;20377;-72
2023/04/12 01:06:08;;;;;;;6.72;1.98;;;;;;;7.15;100.00;100352.25;4988207;28;20389;-72
2023/04/12 01:08:56;;;;;;;8.57;2.70;;;;;;;7.14;100.00;100340.19;5001045;28;20038;-71
2023/04/12 01:11:43;;;;;;;5.53;2.58;;;;;;;7.14;100.00;100331.56;5003969;28;20023;-71
2023/04/12 01:14:31;;;;;;;8.65;2.35;;;;;;;7.09;100.00;100316.06;4989889;28;20038;-72
2023/04/12 01:17:03;;;;;;;8.07;2.47;;;;;;;7.09;100.00;100295.31;4978643;28;20025;-72
2023/04/12 01:19:32;;;;;;;5.25;2.25;;;;;;;7.10;100.00;100302.25;4989158;28;20485;-72
2023/04/12 01:22:27;;;;;;;6.72;2.47;;;;;;;7.10;100.00;100291.03;4987250;28;20512;-72
2023/04/12 01:24:58;;;;;;;6.20;2.47;;;;;;;7.11;100.00;100287.53;4988243;28;20062;-72
2023/04/12 01:27:32;;;;;;;8.18;2.72;;;;;;;7.10;100.00;100276.31;4989294;28;20118;-72
2023/04/12 01:30:00;;;;;;;6.47;2.83;;;;;;;7.08;100.00;100262.53;4988867;28;20095;-72
2023/04/12 01:32:26;;;;;;;4.78;2.35;;;;;;;7.10;100.00;100265.09;4989269;28;20023;-72
2023/04/12 01:34:53;;;;;;;8.43;2.60;;;;;;;7.06;100.00;100256.50;4988705;28;20069;-72
2023/04/12 01:37:20;;;;;;;7.30;2.42;;;;;;;7.00;100.00;100241.94;4986888;28;20030;-72
2023/04/12 01:39:45;;;;;;;6.03;2.28;;;;;;;7.03;100.00;100243.63;4988886;28;20076;-72
2023/04/12 01:42:11;;;;;;;7.38;2.45;;;;;;;7.02;100.00;100234.13;4988336;28;20038;-72
2023/04/12 01:44:36;;;;;;;7.53;2.10;;;;;;;7.00;100.00;100226.38;4988125;28;20476;-72
2023/04/12 01:47:02;;;;;;;9.80;2.70;;;;;;;7.03;100.00;100228.06;4989826;28;20030;-72
2023/04/12 01:49:35;;;;;;;5.35;2.38;;;;;;;6.99;100.00;100221.22;4988613;28;20097;-72
2023/04/12 01:52:14;;;;;;;6.53;2.17;;;;;;;7.04;100.00;100219.41;4994447;28;20498;-72
2023/04/12 01:54:42;;;;;;;8.27;2.83;;;;;;;7.04;100.00;100219.41;4991781;28;20042;-72
2023/04/12 01:57:08;;;;;;;10.90;2.65;;;;;;;7.03;100.00;100205.59;4993030;28;20073;-72
2023/04/12 01:59:39;;;;;;;6.97;2.53;;;;;;;7.02;100.00;100195.25;4991696;28;20035;-72
2023/04/12 02:02:05;;;;;;;5.63;2.40;;;;;;;6.99;100.00;100179.75;4992048;28;20533;-72
2023/04/12 02:04:33;;;;;;;6.82;2.10;;;;;;;7.01;100.00;100176.25;4999220;28;20046;-72
2023/04/12 02:06:58;;;;;;;4.28;2.20;;;;;;;6.95;100.00;100158.22;4991367;28;20035;-72
2023/04/12 02:09:24;;;;;;;7.38;2.35;;;;;;;6.99;100.00;100164.19;4992099;28;20027;-72
2023/04/12 02:11:49;;;;;;;6.60;2.28;;;;;;;6.96;100.00;100159.91;4990975;28;20480;-72
2023/04/12 02:14:15;;;;;;;5.22;2.17;;;;;;;6.95;100.00;100152.19;4990346;28;20053;-72
2023/04/12 02:16:44;;;;;;;8.98;2.13;;;;;;;6.93;100.00;100148.78;4987076;28;20031;-72
2023/04/12 02:19:10;;;;;;;4.72;2.15;;;;;;;6.90;100.00;100141.06;4988487;28;20031;-72
2023/04/12 02:21:43;;;;;;;7.70;1.88;;;;;;;6.91;100.00;100130.69;4989568;28;20033;-72
2023/04/12 02:24:10;;;;;;;6.80;2.33;;;;;;;6.93;100.00;100122.84;4990314;28;20125;-72
2023/04/12 02:26:36;;;;;;;5.95;2.30;;;;;;;6.91;100.00;100112.53;4989901;28;20022;-72
2023/04/12 02:29:02;;;;;;;6.35;2.10;;;;;;;6.91;100.00;100122.06;4989623;28;20042;-72
2023/04/12 02:31:27;;;;;;;5.05;2.10;;;;;;;6.91;100.00;100115.13;4989244;28;20076;-72
2023/04/12 02:33:52;;;;;;;3.72;2.00;;;;;;;6.91;100.00;100103.91;4989394;28;20031;-72
2023/04/12 02:36:18;;;;;;;6.40;2.55;;;;;;;6.91;100.00;100093.53;4991841;28;20026;-72
2023/04/12 02:38:43;;;;;;;8.43;2.08;;;;;;;6.90;100.00;100076.28;4988596;28;20380;-72
2023/04/12 02:41:08;;;;;;;7.80;2.25;;;;;;;6.91;100.00;100078.00;4990568;28;20037;-73
2023/04/12 02:43:34;;;;;;;6.57;2.08;;;;;;;6.93;100.00;100082.28;4988337;28;20540;-73
2023/04/12 02:45:59;;;;;;;4.47;1.90;;;;;;;6.92;100.00;100070.19;4990856;28;20030;-73
2023/04/12 02:48:24;;;;;;;9.57;2.25;;;;;;;6.92;100.00;100058.97;4989249;28;20040;-72
2023/04/12 02:50:50;;;;;;;4.70;2.10;;;;;;;6.92;100.00;100051.19;4991223;28;20087;-72
2023/04/12 02:53:15;;;;;;;9.98;2.08;;;;;;;6.90;100.00;100045.19;4992622;28;20042;-72
2023/04/12 02:55:41;;;;;;;7.20;2.10;;;;;;;6.88;100.00;100031.44;4988073;28;20030;-72
2023/04/12 02:58:06;;;;;;;4.88;1.77;;;;;;;6.89;100.00;100017.56;4989875;28;20038;-72
2023/04/12 03:00:31;;;;;;;8.13;1.80;;;;;;;6.89;100.00;100014.97;4990346;28;20035;-72
2023/04/12 03:03:00;;;;;;;4.55;1.67;;;;;;;6.89;100.00;100014.97;4989221;28;20112;-72
2023/04/12 03:05:26;;;;;;;4.20;1.95;;;;;;;6.90;100.00;100014.09;4989843;28;20033;-72
2023/04/12 03:07:51;;;;;;;5.25;1.92;;;;;;;6.91;100.00;100001.13;4990167;28;20030;-72
2023/04/12 03:10:17;;;;;;;4.65;1.80;;;;;;;6.88;100.00;99984.78;4987783;28;20019;-72
2023/04/12 03:12:42;;;;;;;3.65;1.88;;;;;;;6.90;100.00;99994.25;4989726;28;20029;-72
2023/04/12 03:15:08;;;;;;;5.60;1.63;;;;;;;6.91;100.00;99984.72;4993880;28;20095;-73
2023/04/12 03:17:33;;;;;;;6.63;1.83;;;;;;;6.91;100.00;99976.94;5008063;28;20026;-73
2023/04/12 03:20:09;;;;;;;5.70;1.65;;;;;;;6.89;100.00;99984.72;4989506;28;20079;-73
2023/04/12 03:22:36;;;;;;;3.88;1.55;;;;;;;6.83;100.00;99955.53;4986964;28;20484;-73
2023/04/12 03:25:02;;;;;;;6.30;2.45;;;;;;;6.89;100.00;99976.13;4990445;28;20062;-73
2023/04/12 03:27:28;;;;;;;4.22;1.80;;;;;;;6.90;100.00;99977.81;4990476;28;20563;-74
2023/04/12 03:29:53;;;;;;;4.10;1.70;;;;;;;6.86;100.00;99961.47;4990700;28;20034;-74
2023/04/12 03:32:19;;;;;;;3.38;1.50;;;;;;;6.82;100.00;99948.66;4992399;28;20049;-73
2023/04/12 03:34:45;;;;;;;5.82;2.00;;;;;;;6.82;100.00;99964.19;4991970;28;20481;-74
2023/04/12 03:37:10;;;;;;;6.20;1.80;;;;;;;6.87;100.00;99962.38;4990117;28;20022;-73
2023/04/12 03:39:35;;;;;;;6.00;2.10;;;;;;;6.85;100.00;99943.41;4990938;28;20042;-74
2023/04/12 03:42:00;;;;;;;6.35;1.73;;;;;;;6.84;100.00;99944.28;4990136;28;20377;-74
2023/04/12 03:44:26;;;;;;;6.30;2.08;;;;;;;6.86;100.00;99945.09;4989966;28;20073;-74
2023/04/12 03:46:51;;;;;;;5.18;1.75;;;;;;;6.89;100.00;99945.03;4991557;28;20507;-74
2023/04/12 03:49:17;;;;;;;5.70;1.73;;;;;;;6.88;100.00;99935.56;4990442;28;20461;-74
2023/04/12 03:51:42;;;;;;;6.53;1.92;;;;;;;6.90;100.00;99921.69;4990949;28;20485;-74
2023/04/12 03:54:09;;;;;;;2.90;1.90;;;;;;;6.88;100.00;99918.28;4992479;28;20068;-74
2023/04/12 03:56:34;;;;;;;5.20;2.10;;;;;;;6.84;100.00;99915.78;4990385;28;20031;-74
2023/04/12 03:59:00;;;;;;;6.32;1.90;;;;;;;6.85;100.00;99912.31;4989550;28;20029;-74
2023/04/12 04:01:25;;;;;;;5.07;1.75;;;;;;;6.87;100.00;99913.13;4990748;28;20465;-74
2023/04/12 04:03:51;;;;;;;2.45;1.70;;;;;;;6.91;100.00;99901.81;4991947;28;20042;-76
2023/04/12 04:06:17;;;;;;;3.28;1.80;;;;;;;6.88;100.00;99897.53;4992967;28;20026;-75
2023/04/12 04:08:43;;;;;;;5.05;1.88;;;;;;;6.85;100.00;99886.41;5030065;28;20101;-75
2023/04/12 04:11:10;;;;;;;4.90;1.85;;;;;;;6.83;100.00;99882.97;4998298;28;20033;-75
2023/04/12 04:13:36;;;;;;;3.45;2.13;;;;;;;6.88;100.00;99881.16;4989383;28;20052;-75
2023/04/12 04:16:03;;;;;;;7.55;1.67;;;;;;;6.85;100.00;99878.63;4990405;28;20512;-75
2023/04/12 04:18:28;;;;;;;3.92;1.73;;;;;;;6.89;100.00;99882.84;4989266;28;20050;-75
2023/04/12 04:20:54;;;;;;;4.53;1.88;;;;;;;6.87;100.00;99880.31;4990219;28;20431;-75
2023/04/12 04:23:19;;;;;;;3.65;1.80;;;;;;;6.88;100.00;99866.44;4989092;28;20038;-75
2023/04/12 04:25:45;;;;;;;4.93;1.75;;;;;;;6.88;100.00;99871.63;4987282;28;20027;-75
2023/04/12 04:28:10;;;;;;;2.72;1.60;;;;;;;6.88;100.00;99869.03;4988358;28;20429;-75
2023/04/12 04:30:40;;;;;;;4.00;2.10;;;;;;;6.86;100.00;99862.19;4987951;28;20030;-75
2023/04/12 04:33:06;;;;;;;4.57;1.98;;;;;;;6.88;100.00;99857.84;4987699;28;20481;-75
2023/04/12 04:35:32;;;;;;;3.90;1.70;;;;;;;6.86;100.00;99842.31;4987202;28;20026;-75
2023/04/12 04:37:59;;;;;;;6.00;1.90;;;;;;;6.86;100.00;99844.03;4988103;28;20069;-75
2023/04/12 04:40:25;;;;;;;4.40;2.10;;;;;;;6.87;100.00;99840.59;4990023;28;20026;-75
2023/04/12 04:42:53;;;;;;;6.88;2.30;;;;;;;6.87;100.00;99836.25;4988847;28;20064;-75
2023/04/12 04:45:26;;;;;;;5.97;2.10;;;;;;;6.91;100.00;99843.06;4990025;28;20055;-75
2023/04/12 04:47:54;;;;;;;5.28;1.80;;;;;;;6.90;100.00;99837.91;4986932;28;20043;-75
2023/04/12 04:50:21;;;;;;;5.47;2.10;;;;;;;6.92;100.00;99836.97;4989868;28;20097;-75
2023/04/12 04:52:47;;;;;;;6.03;2.20;;;;;;;6.91;100.00;99837.03;4987608;28;20034;-75
2023/04/12 04:55:13;;;;;;;4.35;1.98;;;;;;;6.88;100.00;99837.94;4987576;28;20022;-75
2023/04/12 04:57:39;;;;;;;6.70;2.30;;;;;;;6.85;100.00;99824.22;4989544;28;20458;-75
2023/04/12 05:00:09;;;;;;;5.20;2.20;;;;;;;6.94;100.00;99836.97;4988902;28;20167;-75
2023/04/12 05:02:35;;;;;;;6.28;2.15;;;;;;;6.92;100.00;99829.19;4989108;28;20019;-75
2023/04/12 05:05:03;;;;;;;5.35;2.40;;;;;;;6.96;100.00;99828.22;4992475;28;20124;-75
2023/04/12 05:07:28;;;;;;;2.95;2.20;;;;;;;6.96;100.00;99836.00;4999158;28;20038;-75
2023/04/12 05:09:53;;;;;;;3.45;2.25;;;;;;;6.96;100.00;99822.19;4989042;28;20033;-75
2023/04/12 05:12:19;;;;;;;4.03;2.30;;;;;;;6.88;100.00;99803.41;4990227;28;20045;-75
2023/04/12 05:14:44;;;;;;;4.75;2.20;;;;;;;6.99;100.00;99817.78;4988419;28;20420;-75
2023/04/12 05:17:09;;;;;;;4.03;2.38;;;;;;;7.03;100.00;99821.19;4990119;28;20087;-75
2023/04/12 05:19:34;;;;;;;7.28;2.20;;;;;;;7.06;100.00;99826.25;4989387;28;20030;-75
2023/04/12 05:22:00;;;;;;;4.57;2.03;;;;;;;7.04;100.00;99815.94;4988318;28;20027;-75
2023/04/12 05:24:25;;;;;;;4.55;2.38;;;;;;;7.05;100.00;99811.63;4989356;28;20065;-75
2023/04/12 05:26:50;;;;;;;3.72;2.15;;;;;;;7.03;100.00;99806.47;4990698;28;20102;-75
2023/04/12 05:29:16;;;;;;;5.22;2.28;;;;;;;7.04;100.00;99809.91;4991611;28;20030;-75
2023/04/12 05:31:41;;;;;;;6.28;2.72;;;;;;;7.04;100.00;99821.13;4992946;28;20109;-75
2023/04/12 05:34:06;;;;;;;8.30;2.65;;;;;;;6.95;100.00;99804.97;4993203;28;20065;-75
2023/04/12 05:36:32;;;;;;;6.57;2.38;;;;;;;7.03;100.00;99814.25;4993651;28;20083;-75
2023/04/12 05:38:57;;;;;;;7.13;2.55;;;;;;;7.06;100.00;99808.13;4992418;28;20018;-75
2023/04/12 05:41:23;;;;;;;5.63;2.40;;;;;;;7.07;100.00;99799.47;4990449;28;20038;-75
2023/04/12 05:43:48;;;;;;;4.30;2.67;;;;;;;7.06;100.00;99792.56;4991390;28;20553;-75
2023/04/12 05:46:13;;;;;;;6.00;2.85;;;;;;;7.10;100.00;99796.81;4993013;28;20030;-75
2023/04/12 05:48:38;;;;;;;5.70;2.70;;;;;;;7.12;100.00;99797.59;4991514;28;20088;-76
2023/04/12 05:51:04;;;;;;;6.20;3.03;;;;;;;7.07;100.00;99804.66;4992583;28;20034;-75
2023/04/12 05:53:31;;;;;;;6.72;3.00;;;;;;;7.08;100.00;99811.53;4994869;28;20046;-75
2023/04/12 05:55:57;;;;;;;6.07;3.00;;;;;;;7.12;100.00;99802.78;4992619;28;20018;-76
2023/04/12 05:58:22;;;;;;;9.02;2.90;;;;;;;7.18;100.00;99802.63;4991861;28;20053;-76
2023/04/12 06:00:48;;;;;;;4.65;2.60;;;;;;;7.20;100.00;99800.84;4992255;28;20121;-75
2023/04/12 06:03:14;;;;;;;5.00;2.50;;;;;;;7.20;100.00;99802.59;4994075;28;20469;-75
2023/04/12 06:05:39;;;;;;;6.60;2.90;;;;;;;7.20;100.00;99805.19;4990330;28;20027;-75
2023/04/12 06:08:05;;;;;;;7.95;2.97;;;;;;;7.21;100.00;99796.53;4993806;28;20065;-76
2023/04/12 06:10:30;;;;;;;8.60;3.30;;;;;;;7.26;100.00;99803.28;4990092;28;20481;-76
2023/04/12 06:12:56;;;;;;;6.32;2.55;;;;;;;7.30;100.00;99795.44;4989811;28;20052;-76
2023/04/12 06:15:21;;;;;;;5.50;3.55;;;;;;;7.31;100.00;99789.34;4992328;28;20396;-76
2023/04/12 06:17:47;;;;;;;6.25;2.90;;;;;;;7.33;100.00;99790.16;4992207;28;20465;-76
2023/04/12 06:20:12;;;;;;;5.82;3.17;;;;;;;7.36;100.00;99792.69;4989545;28;20370;-75
2023/04/12 06:22:37;;;;;;;7.50;2.88;;;;;;;7.33;100.00;99796.19;4989130;28;20041;-76
2023/04/12 06:25:03;;;;;;;8.95;2.75;;;;;;;7.32;100.00;99788.44;4990855;28;20039;-75
2023/04/12 06:27:29;;;;;;;6.57;3.08;;;;;;;7.31;100.00;99786.75;4992558;28;20113;-75
2023/04/12 06:29:54;;;;;;;7.28;3.25;;;;;;;7.35;100.00;99778.00;4990387;28;20113;-76
2023/04/12 06:32:20;;;;;;;4.63;2.80;;;;;;;7.34;100.00;99782.34;4989715;28;20870;-75
2023/04/12 06:34:46;;;;;;;4.88;3.00;;;;;;;7.36;100.00;99784.91;4992427;28;20570;-75
2023/04/12 06:37:11;;;;;;;7.70;3.58;;;;;;;7.37;100.00;99769.28;4990316;28;20026;-75
2023/04/12 06:39:36;;;;;;;6.38;3.72;;;;;;;7.42;100.00;99776.94;4991066;28;20035;-75
2023/04/12 06:42:02;;;;;;;5.80;3.33;;;;;;;7.43;100.00;99776.06;4992198;28;20110;-75
2023/04/12 06:44:27;;;;;;;10.00;3.80;;;;;;;7.40;100.00;99770.97;4991613;28;20034;-75
2023/04/12 06:46:53;;;;;;;6.88;3.80;;;;;;;7.45;100.00;99779.44;4988405;28;20043;-75
2023/04/12 06:49:18;;;;;;;8.98;4.13;;;;;;;7.46;100.00;99765.59;4992240;28;20064;-75
2023/04/12 06:51:43;;;;;;;7.95;4.07;;;;;;;7.46;100.00;99784.59;4991747;28;20026;-76
2023/04/12 06:54:09;;;;;;;8.50;4.00;;;;;;;7.43;100.00;99776.06;5006994;28;20042;-76
2023/04/12 06:56:36;;;;;;;7.68;4.18;;;;;;;7.46;100.00;99779.41;5017952;28;20070;-75
2023/04/12 06:59:01;;;;;;;9.55;5.05;;;;;;;7.53;100.00;99781.84;4991008;28;20037;-75
2023/04/12 07:01:27;;;;;;;11.45;5.95;;;;;;;7.53;100.00;99772.31;4991312;28;20032;-75
2023/04/12 07:03:52;;;;;;;11.30;5.60;;;;;;;7.63;100.00;99783.28;4990836;28;20042;-76
2023/04/12 07:06:17;;;;;;;10.27;5.22;;;;;;;7.68;100.00;99782.25;4990637;28;20486;-75
2023/04/12 07:08:43;;;;;;;8.68;5.68;;;;;;;7.73;100.00;99774.34;4990200;28;20109;-76
2023/04/12 07:11:08;;;;;;;9.82;5.40;;;;;;;7.79;100.00;99778.50;4992321;28;20022;-76
2023/04/12 07:13:33;;;;;;;12.18;5.65;;;;;;;7.75;100.00;99775.16;4991357;28;20053;-76
2023/04/12 07:15:59;;;;;;;7.65;5.50;;;;;;;7.82;100.00;99783.63;4990351;28;20038;-75
2023/04/12 07:18:25;;;;;;;13.35;5.65;;;;;;;7.88;100.00;99786.88;4991824;28;20068;-75
2023/04/12 07:20:54;;;;;;;11.75;6.00;;;;;;;7.91;100.00;99776.41;4991133;28;20080;-76
2023/04/12 07:23:19;;;;;;;9.10;5.68;;;;;;;7.94;100.00;99773.69;4991055;28;20030;-75
2023/04/12 07:25:44;;;;;;;13.80;5.88;;;;;;;8.01;100.00;99779.59;4990508;28;20519;-75
2023/04/12 07:28:10;;;;;;;11.45;6.00;;;;;;;8.04;100.00;99776.88;4989290;28;20613;-75
2023/04/12 07:30:38;;;;;;;14.20;5.93;;;;;;;8.10;100.00;99781.03;4988743;28;20034;-75
2023/04/12 07:33:04;;;;;;;11.10;5.95;;;;;;;8.10;100.00;99781.03;4988743;28;20361;-75
2023/04/12 07:35:30;;;;;;;10.82;5.35;;;;;;;8.17;100.00;99785.13;4989344;28;20024;-75
2023/04/12 07:37:56;;;;;;;11.35;5.22;;;;;;;8.18;100.00;99772.13;4990928;28;20030;-75
2023/04/12 07:40:21;;;;;;;8.73;5.07;;;;;;;8.19;100.00;99768.63;4991220;28;20037;-75
2023/04/12 07:42:47;;;;;;;14.60;5.03;;;;;;;8.16;100.00;99771.31;4990411;28;20499;-75
2023/04/12 07:45:12;;;;;;;16.00;5.30;;;;;;;8.25;100.00;99782.31;4990778;28;20035;-75
2023/04/12 07:47:37;;;;;;;12.05;5.43;;;;;;;8.25;100.00;99769.34;4990460;28;20022;-75
2023/04/12 07:50:03;;;;;;;14.95;5.18;;;;;;;8.25;100.00;99762.41;4990177;28;20477;-75
2023/04/12 07:52:28;;;;;;;12.57;4.95;;;;;;;8.33;100.00;99764.75;4991119;28;20026;-77
2023/04/12 07:54:54;;;;;;;10.55;4.63;;;;;;;8.35;100.00;99761.22;4990561;28;20121;-75
2023/04/12 07:57:20;;;;;;;10.88;5.05;;;;;;;8.35;100.00;99757.78;4990629;28;20022;-75
2023/04/12 07:59:45;;;;;;;11.10;5.25;;;;;;;8.31;100.00;99771.75;4990946;28;20424;-75
2023/04/12 08:02:10;;;;;;;13.05;5.00;;;;;;;8.28;100.00;99772.69;4990650;28;20539;-75
2023/04/12 08:04:37;;;;;;;12.68;5.30;;;;;;;8.29;100.00;99776.13;4990521;28;20034;-75
2023/04/12 08:07:02;;;;;;;12.82;4.88;;;;;;;8.34;100.00;99767.31;4990686;28;20447;-74
2023/04/12 08:09:27;;;;;;;15.43;5.15;;;;;;;8.44;100.00;99768.75;4990653;28;20054;-75
2023/04/12 08:11:53;;;;;;;14.48;5.95;;;;;;;8.52;100.00;99770.25;4990104;28;20031;-75
2023/04/12 08:14:19;;;;;;;11.95;5.18;;;;;;;8.52;100.00;99781.47;4990669;28;20033;-75
2023/04/12 08:16:44;;;;;;;11.70;4.32;;;;;;;8.52;100.00;99788.44;4990443;28;20023;-75
2023/04/12 08:19:09;;;;;;;14.45;5.05;;;;;;;8.58;100.00;99791.69;4990214;28;20113;-75
2023/04/12 08:21:35;;;;;;;10.98;5.10;;;;;;;8.57;100.00;99778.75;4988461;28;20038;-76
2023/04/12 08:24:00;;;;;;;9.15;5.28;;;;;;;8.65;100.00;99789.75;4987499;28;20117;-76
2023/04/12 08:26:25;;;;;;;10.45;5.88;;;;;;;8.58;100.00;99789.09;4990351;28;20061;-75
2023/04/12 08:28:51;;;;;;;13.60;6.18;;;;;;;8.76;100.00;99778.97;4976667;28;20040;-75
2023/04/12 08:31:17;;;;;;;18.25;7.25;;;;;;;8.86;100.00;99781.25;4990395;28;20026;-75
2023/04/12 08:33:42;;;;;;;13.07;7.13;;;;;;;8.90;100.00;99787.19;4989464;28;20083;-75
2023/04/12 08:36:08;;;;;;;14.77;7.93;;;;;;;9.00;100.00;99785.13;4990786;28;20107;-75
2023/04/12 08:38:33;;;;;;;18.10;7.72;;;;;;;9.13;100.00;99789.88;4986504;28;20497;-76
2023/04/12 08:41:02;;;;;;;15.07;8.18;;;;;;;9.12;100.00;99775.16;4987388;28;20034;-76
2023/04/12 08:43:32;;;;;;;17.55;7.10;;;;;;;9.18;100.00;99768.88;4987859;28;20064;-74
2023/04/12 08:45:58;;;;;;;17.17;6.70;;;;;;;9.24;100.00;99765.22;4989558;28;20026;-75
2023/04/12 08:48:25;;;;;;;11.48;7.10;;;;;;;9.24;100.00;99766.06;4989718;28;20052;-75
2023/04/12 08:50:51;;;;;;;17.38;7.78;;;;;;;9.28;100.00;99766.81;4988004;28;20027;-75
2023/04/12 08:53:16;;;;;;;21.40;8.02;;;;;;;9.41;100.00;99772.44;4988157;28;20050;-74
2023/04/12 08:55:45;;;;;;;17.40;8.40;;;;;;;9.61;100.00;99772.56;4990031;28;20041;-74
2023/04/12 08:58:13;;;;;;;18.42;8.43;;;;;;;9.73;100.00;99782.53;4989364;28;20019;-75
2023/04/12 09:00:40;;;;;;;18.45;8.57;;;;;;;9.97;100.00;99769.50;4988392;28;20040;-75
2023/04/12 09:03:05;;;;;;;17.45;7.80;;;;;;;10.17;100.00;99769.59;4992648;28;20026;-74
2023/04/12 09:05:34;;;;;;;14.75;7.38;;;;;;;10.18;100.00;99760.03;4991458;28;20076;-75
2023/04/12 09:07:59;;;;;;;15.90;7.07;;;;;;;10.38;100.00;99762.72;4990376;28;20054;-74
2023/04/12 09:10:38;;;;;;;13.77;6.68;;;;;;;10.27;100.00;99764.91;5001552;28;20042;-74
2023/04/12 09:13:04;;;;;;;16.35;7.80;;;;;;;9.78;100.00;99754.59;4986058;28;20019;-74
2023/04/12 09:15:30;;;;;;;20.70;8.70;;;;;;;9.74;100.00;99752.13;4993703;28;20033;-73
2023/04/12 09:18:04;;;;;;;19.05;7.82;;;;;;;9.74;100.00;99754.75;4993100;28;20030;-75
2023/04/12 09:20:29;;;;;;;18.85;8.63;;;;;;;9.74;100.00;99755.59;4981078;28;20050;-74
2023/04/12 09:22:55;;;;;;;19.67;9.55;;;;;;;9.87;100.00;99750.78;4992468;28;20022;-74
2023/04/12 09:25:40;;;;;;;23.13;9.55;;;;;;;10.11;100.00;99748.16;4993647;28;20097;-75
2023/04/12 09:28:20;;;;;;;24.48;10.70;;;;;;;10.39;100.00;99751.38;4992036;28;20054;-78
2023/04/12 09:30:50;;;;;;;27.60;11.40;;;;;;;10.88;100.00;99738.94;4981222;28;20027;-75
2023/04/12 09:33:16;;;;;;;22.85;9.50;;;;;;;11.21;100.00;99743.63;4992793;28;20035;-75
2023/04/12 09:35:42;;;;;;;24.85;9.80;;;;;;;11.61;100.00;99734.88;4990733;28;20073;-75
2023/04/12 09:38:08;;;;;;;16.70;8.93;;;;;;;11.63;100.00;99745.25;4991465;28;20065;-75
2023/04/12 09:40:35;;;;;;;27.15;9.60;;;;;;;11.60;100.00;99741.00;4992737;28;20038;-76
2023/04/12 09:43:01;;;;;;;20.65;8.43;;;;;;;11.56;100.00;99749.06;4991847;28;20030;-74
2023/04/12 09:45:27;;;;;;;22.80;7.60;;;;;;;11.51;100.00;99740.56;4993075;28;20023;-74
2023/04/12 09:47:53;;;;;;;21.92;8.40;;;;;;;11.51;100.00;99743.19;4993705;28;20099;-74
2023/04/12 09:50:21;;;;;;;18.60;7.22;;;;;;;11.56;100.00;99741.22;4993786;28;20078;-74
2023/04/12 09:52:47;;;;;;;22.48;8.10;;;;;;;11.53;100.00;99736.13;4992612;28;20377;-73
2023/04/12 09:55:13;;;;;;;19.65;7.70;;;;;;;11.36;100.00;99727.31;4992358;28;20036;-74
2023/04/12 09:57:41;;;;;;;25.50;8.07;;;;;;;11.37;100.00;99720.31;4990477;28;20041;-77
2023/04/12 10:00:18;;;;;;;23.33;8.02;;;;;;;11.58;100.00;99732.41;4993308;28;20440;-78
2023/04/12 10:02:46;;;;;;;19.13;7.43;;;;;;;11.46;100.00;99722.53;4992502;28;20030;-78
2023/04/12 10:05:14;;;;;;;16.88;7.25;;;;;;;11.53;100.00;99721.31;4992241;28;20437;-78
2023/04/12 10:07:43;;;;;;;21.38;6.88;;;;;;;11.54;100.00;99725.63;4992067;28;20015;-78
2023/04/12 10:10:13;;;;;;;21.52;6.97;;;;;;;11.36;100.00;99731.69;4992383;28;20064;-77
2023/04/12 10:12:40;;;;;;;22.95;7.30;;;;;;;11.14;100.00;99747.41;4992681;28;20489;-77
2023/04/12 10:15:16;;;;;;;22.95;8.88;;;;;;;10.71;100.00;99755.28;4992369;28;20516;-77
2023/04/12 10:17:47;;;;;;;20.80;6.65;;;;;;;10.35;100.00;99751.56;4992267;28;20052;-75
2023/04/12 10:20:14;;;;;;;18.55;6.38;;;;;;;10.19;100.00;99751.28;4992454;28;20022;-74
2023/04/12 10:22:53;;;;;;;19.95;6.82;;;;;;;10.29;100.00;99744.84;4991760;28;20030;-76
2023/04/12 10:25:20;;;;;;;20.05;6.13;;;;;;;10.34;100.00;99745.53;4991961;28;20058;-76
2023/04/12 10:27:46;;;;;;;19.83;6.95;;;;;;;10.45;100.00;99737.25;4991776;28;20026;-74
2023/04/12 10:30:22;;;;;;;20.38;6.35;;;;;;;10.41;100.00;99749.56;4992796;28;20034;-77
2023/04/12 10:32:49;;;;;;;20.85;6.72;;;;;;;10.25;100.00;99754.50;4991529;28;20018;-76
2023/04/12 10:35:15;;;;;;;18.25;6.85;;;;;;;10.13;100.00;99754.13;4992571;28;20045;-76
2023/04/12 10:38:03;;;;;;;17.40;5.13;;;;;;;9.91;100.00;99764.50;4991089;28;20427;-76
2023/04/12 10:40:32;;;;;;;14.07;3.88;;;;;;;9.64;100.00;99756.84;4990834;28;20026;-76
2023/04/12 10:43:19;;;;;;;21.23;4.65;;;;;;;9.54;100.00;99763.28;4989713;28;20042;-74
2023/04/12 10:45:44;;;;;;;12.05;3.60;;;;;;;9.12;100.00;99772.56;4989064;28;20030;-74
2023/04/12 10:48:47;;;;;;;13.80;3.72;;;;;;;8.52;100.00;99791.03;4992348;28;20034;-75
2023/04/12 10:51:16;;;;;;;19.17;5.13;;;;;;;7.94;100.00;99783.22;4978945;28;20056;-75
2023/04/12 10:53:45;;;;;;;23.40;5.82;;;;;;;7.81;100.00;99768.91;4990853;28;20042;-75
2023/04/12 10:56:28;;;;;;;16.90;5.63;;;;;;;8.12;100.00;99771.47;4992206;28;20031;-76
2023/04/12 10:58:58;;;;;;;24.50;8.10;;;;;;;8.42;100.00;99760.16;4988161;28;20031;-76
2023/04/12 11:01:24;;;;;;;33.05;7.35;;;;;;;8.82;100.00;99774.44;4989775;28;20057;-76
2023/04/12 11:04:35;;;;;;;34.45;8.40;;;;;;;9.11;100.00;99775.22;5043715;28;20030;-76
2023/04/12 11:07:05;;;;;;;29.52;8.73;;;;;;;9.15;100.00;99779.41;4985311;28;20095;-76
2023/04/12 11:09:33;;;;;;;26.00;9.02;;;;;;;9.30;100.00;99776.28;4991940;28;20022;-76
2023/04/12 11:12:07;;;;;;;26.40;9.80;;;;;;;9.32;100.00;99776.22;4989996;28;20151;-76
2023/04/12 11:14:36;;;;;;;23.50;9.80;;;;;;;9.46;100.00;99775.72;4990622;28;20027;-75
2023/04/12 11:17:04;;;;;;;21.98;8.77;;;;;;;9.52;100.00;99776.34;4991640;28;20026;-75
2023/04/12 11:19:31;;;;;;;26.83;9.00;;;;;;;9.57;100.00;99778.78;4991052;28;20076;-75
2023/04/12 11:21:58;;;;;;;30.73;8.27;;;;;;;9.53;100.00;99785.00;4989973;28;20023;-76
2023/04/12 11:24:23;;;;;;;20.88;7.65;;;;;;;9.38;100.00;99769.06;4989198;28;20496;-75
2023/04/12 11:26:49;;;;;;;33.15;8.27;;;;;;;9.44;100.00;99775.78;4989993;28;20034;-76
2023/04/12 11:29:25;;;;;;;31.10;8.02;;;;;;;9.60;100.00;99778.69;5021175;28;20464;-75